createdAt,value
2023-04-19T00:00:17.478Z,13.28
2023-04-19T00:01:17.501Z,13.35
2023-04-19T00:02:17.702Z,13.28
2023-04-19T00:03:17.791Z,13.27
2023-04-19T00:04:18.242Z,13.28
2023-04-19T00:05:17.691Z,13.31
2023-04-19T00:06:17.643Z,13.28
2023-04-19T00:07:17.664Z,13.27
2023-04-19T00:08:17.694Z,13.35
2023-04-19T00:09:17.719Z,13.21
2023-04-19T00:10:17.748Z,13.31
2023-04-19T00:11:17.797Z,13.21
2023-04-19T00:12:17.805Z,13.20
2023-04-19T00:13:17.833Z,13.21
2023-04-19T00:14:17.991Z,13.16
2023-04-19T00:15:17.891Z,13.20
2023-04-19T00:16:17.961Z,13.20
2023-04-19T00:17:17.937Z,13.19
2023-04-19T00:18:17.966Z,13.21
2023-04-19T00:19:17.989Z,13.17
2023-04-19T00:20:18.044Z,13.25
2023-04-19T00:21:18.046Z,13.20
2023-04-19T00:22:18.074Z,13.20
2023-04-19T00:23:18.103Z,13.16
2023-04-19T00:24:18.139Z,13.24
2023-04-19T00:25:18.166Z,13.20
2023-04-19T00:26:18.184Z,13.20
2023-04-19T00:27:18.207Z,13.19
2023-04-19T00:28:18.239Z,13.21
2023-04-19T00:29:18.268Z,13.17
2023-04-19T00:30:18.303Z,13.10
2023-04-19T00:31:18.393Z,13.10
2023-04-19T00:32:18.351Z,13.14
2023-04-19T00:33:18.374Z,13.11
2023-04-19T00:34:18.403Z,13.09
2023-04-19T00:35:18.429Z,13.16
2023-04-19T00:36:18.482Z,13.14
2023-04-19T00:37:18.484Z,13.16
2023-04-19T00:38:18.524Z,13.11
2023-04-19T00:39:18.540Z,13.14
2023-04-19T00:40:18.573Z,13.16
2023-04-19T00:41:18.592Z,13.13
2023-04-19T00:42:18.623Z,13.20
2023-04-19T00:43:18.660Z,13.17
2023-04-19T00:44:18.683Z,13.11
2023-04-19T00:45:18.700Z,13.17
2023-04-19T00:46:18.764Z,13.17
2023-04-19T00:47:18.753Z,13.16
2023-04-19T00:48:18.784Z,13.17
2023-04-19T00:49:18.829Z,13.21
2023-04-19T00:50:18.858Z,13.14
2023-04-19T00:51:18.871Z,13.21
2023-04-19T00:52:18.917Z,13.17
2023-04-19T00:53:18.917Z,13.11
2023-04-19T00:54:18.950Z,13.14
2023-04-19T00:55:20.184Z,13.03
2023-04-19T00:56:19.022Z,13.17
2023-04-19T00:57:19.042Z,13.07
2023-04-19T00:58:19.060Z,13.07
2023-04-19T00:59:19.081Z,13.16
2023-04-19T01:00:19.114Z,13.13
2023-04-19T01:01:19.169Z,13.07
2023-04-19T01:02:19.203Z,13.07
2023-04-19T01:03:19.294Z,13.10
2023-04-19T01:04:19.542Z,13.07
2023-04-19T01:05:19.258Z,13.11
2023-04-19T01:06:19.288Z,13.07
2023-04-19T01:07:19.313Z,13.09
2023-04-19T01:08:19.360Z,13.03
2023-04-19T01:09:19.359Z,13.06
2023-04-19T01:10:19.387Z,13.11
2023-04-19T01:11:19.411Z,13.06
2023-04-19T01:12:19.438Z,13.10
2023-04-19T01:13:19.463Z,13.09
2023-04-19T01:14:19.492Z,13.06
2023-04-19T01:15:19.520Z,13.02
2023-04-19T01:16:19.610Z,13.10
2023-04-19T01:17:19.656Z,13.06
2023-04-19T01:18:19.608Z,13.06
2023-04-19T01:19:19.626Z,13.06
2023-04-19T01:20:19.654Z,13.10
2023-04-19T01:21:19.684Z,13.07
2023-04-19T01:22:19.713Z,13.13
2023-04-19T01:23:19.733Z,13.09
2023-04-19T01:24:19.877Z,13.09
2023-04-19T01:25:19.790Z,13.11
2023-04-19T01:26:19.817Z,13.02
2023-04-19T01:27:19.844Z,13.06
2023-04-19T01:28:19.881Z,13.01
2023-04-19T01:29:19.899Z,13.02
2023-04-19T01:30:19.928Z,12.99
2023-04-19T01:31:20.001Z,12.99
2023-04-19T01:32:20.048Z,13.01
2023-04-19T01:33:20.007Z,13.01
2023-04-19T01:34:20.036Z,12.89
2023-04-19T01:35:20.059Z,12.88
2023-04-19T01:36:20.088Z,12.92
2023-04-19T01:37:20.120Z,12.74
2023-04-19T01:38:20.143Z,12.77
2023-04-19T01:39:20.176Z,12.65
2023-04-19T01:40:20.348Z,12.69
2023-04-19T01:41:20.224Z,12.59
2023-04-19T01:42:20.250Z,12.61
2023-04-19T01:43:20.277Z,12.66
2023-04-19T01:44:20.305Z,12.69
2023-04-19T01:45:20.332Z,12.56
2023-04-19T01:46:20.386Z,12.48
2023-04-19T01:47:20.386Z,12.51
2023-04-19T01:48:20.421Z,12.53
2023-04-19T01:49:20.441Z,12.53
2023-04-19T01:50:20.495Z,12.52
2023-04-19T01:51:20.498Z,12.55
2023-04-19T01:52:20.529Z,12.59
2023-04-19T01:53:20.549Z,12.55
2023-04-19T01:54:20.597Z,12.47
2023-04-19T01:55:20.602Z,12.43
2023-04-19T01:56:20.654Z,12.48
2023-04-19T01:57:20.665Z,12.47
2023-04-19T01:58:20.684Z,12.47
2023-04-19T01:59:20.723Z,12.47
2023-04-19T02:00:20.737Z,12.44
2023-04-19T02:01:20.920Z,12.48
2023-04-19T02:02:20.916Z,12.44
2023-04-19T02:03:20.988Z,12.34
2023-04-19T02:04:20.887Z,12.41
2023-04-19T02:05:20.875Z,12.23
2023-04-19T02:06:20.923Z,12.29
2023-04-19T02:07:20.932Z,12.31
2023-04-19T02:08:20.957Z,12.25
2023-04-19T02:09:20.984Z,12.25
2023-04-19T02:10:21.038Z,12.31
2023-04-19T02:11:21.038Z,12.25
2023-04-19T02:12:21.143Z,12.28
2023-04-19T02:13:21.092Z,12.29
2023-04-19T02:14:21.123Z,12.26
2023-04-19T02:15:21.146Z,12.31
2023-04-19T02:16:21.207Z,12.26
2023-04-19T02:17:21.197Z,12.37
2023-04-19T02:18:21.229Z,12.37
2023-04-19T02:19:21.253Z,12.26
2023-04-19T02:20:21.284Z,12.37
2023-04-19T02:21:21.321Z,12.41
2023-04-19T02:22:21.341Z,12.36
2023-04-19T02:23:21.363Z,12.38
2023-04-19T02:24:21.395Z,12.51
2023-04-19T02:25:21.430Z,12.43
2023-04-19T02:26:21.446Z,12.44
2023-04-19T02:27:21.471Z,12.48
2023-04-19T02:28:21.522Z,12.53
2023-04-19T02:29:21.528Z,12.51
2023-04-19T02:30:21.552Z,12.51
2023-04-19T02:31:21.670Z,12.52
2023-04-19T02:32:21.606Z,12.51
2023-04-19T02:33:21.633Z,12.51
2023-04-19T02:34:21.664Z,12.51
2023-04-19T02:35:21.722Z,12.51
2023-04-19T02:36:21.723Z,12.52
2023-04-19T02:37:21.748Z,12.52
2023-04-19T02:38:21.773Z,12.53
2023-04-19T02:39:21.797Z,12.48
2023-04-19T02:40:21.829Z,12.53
2023-04-19T02:41:21.856Z,12.53
2023-04-19T02:42:21.922Z,12.53
2023-04-19T02:43:21.909Z,12.48
2023-04-19T02:44:21.958Z,12.56
2023-04-19T02:45:21.959Z,12.58
2023-04-19T02:46:22.027Z,12.59
2023-04-19T02:47:22.019Z,12.59
2023-04-19T02:48:22.042Z,12.58
2023-04-19T02:49:22.068Z,12.61
2023-04-19T02:50:22.100Z,12.61
2023-04-19T02:51:22.122Z,12.66
2023-04-19T02:52:22.152Z,12.51
2023-04-19T02:53:22.182Z,12.52
2023-04-19T02:54:22.212Z,12.51
2023-04-19T02:55:22.234Z,12.47
2023-04-19T02:56:22.266Z,12.59
2023-04-19T02:57:22.294Z,12.53
2023-04-19T02:58:22.313Z,12.53
2023-04-19T02:59:22.338Z,12.53
2023-04-19T03:00:22.399Z,12.55
2023-04-19T03:01:22.409Z,12.45
2023-04-19T03:02:22.448Z,12.62
2023-04-19T03:03:22.591Z,12.51
2023-04-19T03:04:22.539Z,12.51
2023-04-19T03:05:22.503Z,12.51
2023-04-19T03:06:22.586Z,12.52
2023-04-19T03:07:22.553Z,12.51
2023-04-19T03:08:22.586Z,12.47
2023-04-19T03:09:22.618Z,12.48
2023-04-19T03:10:22.643Z,12.51
2023-04-19T03:11:22.672Z,12.44
2023-04-19T03:12:22.718Z,12.51
2023-04-19T03:13:22.722Z,12.45
2023-04-19T03:14:22.755Z,12.45
2023-04-19T03:15:22.785Z,12.45
2023-04-19T03:16:22.958Z,12.45
2023-04-19T03:17:22.861Z,12.47
2023-04-19T03:18:22.857Z,12.43
2023-04-19T03:19:22.882Z,12.48
2023-04-19T03:20:22.908Z,12.40
2023-04-19T03:21:22.933Z,12.44
2023-04-19T03:22:22.957Z,12.37
2023-04-19T03:23:22.988Z,12.31
2023-04-19T03:24:23.010Z,12.40
2023-04-19T03:25:23.040Z,12.38
2023-04-19T03:26:23.064Z,12.36
2023-04-19T03:27:23.096Z,12.31
2023-04-19T03:28:23.119Z,12.31
2023-04-19T03:29:23.149Z,12.44
2023-04-19T03:30:23.169Z,12.25
2023-04-19T03:31:23.254Z,12.28
2023-04-19T03:32:23.265Z,12.38
2023-04-19T03:33:23.253Z,12.34
2023-04-19T03:34:23.281Z,12.34
2023-04-19T03:35:24.719Z,12.33
2023-04-19T03:36:23.329Z,12.26
2023-04-19T03:37:23.356Z,12.41
2023-04-19T03:38:23.382Z,12.36
2023-04-19T03:39:23.410Z,12.36
2023-04-19T03:40:23.436Z,12.44
2023-04-19T03:41:23.463Z,12.31
2023-04-19T03:42:23.492Z,12.37
2023-04-19T03:43:23.526Z,12.34
2023-04-19T03:44:23.553Z,12.38
2023-04-19T03:45:23.576Z,12.36
2023-04-19T03:46:23.628Z,12.31
2023-04-19T03:47:23.677Z,12.37
2023-04-19T03:48:23.668Z,12.33
2023-04-19T03:49:23.693Z,12.26
2023-04-19T03:50:23.708Z,12.28
2023-04-19T03:51:23.736Z,12.22
2023-04-19T03:52:23.754Z,12.29
2023-04-19T03:53:23.787Z,12.29
2023-04-19T03:54:23.816Z,12.28
2023-04-19T03:55:23.835Z,12.25
2023-04-19T03:56:23.862Z,12.29
2023-04-19T03:57:23.892Z,12.36
2023-04-19T03:58:23.916Z,12.34
2023-04-19T03:59:23.943Z,12.29
2023-04-19T04:00:23.968Z,12.28
2023-04-19T04:01:23.999Z,12.29
2023-04-19T04:02:24.137Z,12.26
2023-04-19T04:03:24.352Z,12.22
2023-04-19T04:04:24.184Z,12.29
2023-04-19T04:05:24.280Z,12.20
2023-04-19T04:06:24.134Z,12.25
2023-04-19T04:07:24.156Z,12.18
2023-04-19T04:08:24.182Z,12.15
2023-04-19T04:09:24.221Z,12.22
2023-04-19T04:10:24.241Z,12.08
2023-04-19T04:11:24.266Z,12.11
2023-04-19T04:12:24.288Z,12.08
2023-04-19T04:13:24.318Z,12.19
2023-04-19T04:14:24.353Z,12.20
2023-04-19T04:15:24.370Z,12.18
2023-04-19T04:16:24.433Z,12.18
2023-04-19T04:17:24.590Z,12.23
2023-04-19T04:18:24.449Z,12.18
2023-04-19T04:19:24.476Z,12.22
2023-04-19T04:20:24.517Z,12.20
2023-04-19T04:21:24.531Z,12.20
2023-04-19T04:22:24.553Z,12.20
2023-04-19T04:23:24.584Z,12.20
2023-04-19T04:24:24.810Z,12.22
2023-04-19T04:25:24.636Z,12.19
2023-04-19T04:26:24.671Z,12.25
2023-04-19T04:27:24.691Z,12.28
2023-04-19T04:28:24.721Z,12.22
2023-04-19T04:29:24.752Z,12.22
2023-04-19T04:30:27.271Z,12.25
2023-04-19T04:31:24.849Z,12.22
2023-04-19T04:32:24.847Z,12.23
2023-04-19T04:33:24.862Z,12.22
2023-04-19T04:34:24.889Z,12.25
2023-04-19T04:35:24.917Z,12.15
2023-04-19T04:36:24.972Z,12.19
2023-04-19T04:37:24.972Z,12.19
2023-04-19T04:38:25.393Z,12.22
2023-04-19T04:39:25.029Z,12.22
2023-04-19T04:40:25.052Z,12.22
2023-04-19T04:41:25.083Z,12.22
2023-04-19T04:42:25.109Z,12.20
2023-04-19T04:43:25.135Z,12.18
2023-04-19T04:44:25.348Z,12.03
2023-04-19T04:45:25.198Z,12.11
2023-04-19T04:46:25.268Z,12.16
2023-04-19T04:47:25.325Z,12.19
2023-04-19T04:48:25.271Z,12.20
2023-04-19T04:49:25.305Z,12.19
2023-04-19T04:50:25.328Z,12.20
2023-04-19T04:51:25.352Z,12.18
2023-04-19T04:52:25.398Z,12.15
2023-04-19T04:53:25.407Z,12.22
2023-04-19T04:54:25.434Z,12.19
2023-04-19T04:55:25.460Z,12.22
2023-04-19T04:56:25.494Z,12.16
2023-04-19T04:57:25.531Z,12.15
2023-04-19T04:58:25.540Z,12.18
2023-04-19T04:59:25.568Z,12.22
2023-04-19T05:00:25.609Z,12.18
2023-04-19T05:01:25.670Z,12.04
2023-04-19T05:02:25.805Z,12.18
2023-04-19T05:03:25.710Z,12.20
2023-04-19T05:04:25.741Z,12.22
2023-04-19T05:05:25.724Z,12.22
2023-04-19T05:06:25.751Z,12.23
2023-04-19T05:07:25.796Z,12.19
2023-04-19T05:08:25.820Z,12.04
2023-04-19T05:09:25.839Z,12.16
2023-04-19T05:10:25.859Z,12.08
2023-04-19T05:11:25.886Z,12.20
2023-04-19T05:12:25.911Z,12.19
2023-04-19T05:13:25.938Z,12.16
2023-04-19T05:14:25.967Z,12.20
2023-04-19T05:15:25.998Z,12.20
2023-04-19T05:16:26.054Z,12.20
2023-04-19T05:17:26.058Z,12.07
2023-04-19T05:18:26.092Z,12.19
2023-04-19T05:19:26.104Z,12.20
2023-04-19T05:20:26.123Z,12.22
2023-04-19T05:21:26.150Z,12.19
2023-04-19T05:22:26.185Z,12.22
2023-04-19T05:23:26.205Z,12.25
2023-04-19T05:24:26.338Z,12.22
2023-04-19T05:25:26.259Z,12.22
2023-04-19T05:26:26.284Z,12.19
2023-04-19T05:27:26.317Z,12.19
2023-04-19T05:28:26.366Z,12.20
2023-04-19T05:29:26.363Z,12.26
2023-04-19T05:30:26.389Z,12.26
2023-04-19T05:31:26.522Z,12.22
2023-04-19T05:32:26.472Z,12.18
2023-04-19T05:33:26.470Z,12.25
2023-04-19T05:34:26.512Z,12.20
2023-04-19T05:35:26.552Z,12.19
2023-04-19T05:36:29.172Z,12.25
2023-04-19T05:37:29.808Z,12.26
2023-04-19T05:38:26.608Z,12.33
2023-04-19T05:39:26.636Z,12.28
2023-04-19T05:40:26.681Z,12.28
2023-04-19T05:41:26.688Z,12.40
2023-04-19T05:42:26.710Z,12.25
2023-04-19T05:43:26.802Z,12.37
2023-04-19T05:44:26.763Z,12.28
2023-04-19T05:45:26.802Z,12.36
2023-04-19T05:46:26.896Z,12.26
2023-04-19T05:47:26.860Z,12.29
2023-04-19T05:48:26.878Z,12.29
2023-04-19T05:49:26.899Z,12.23
2023-04-19T05:50:26.941Z,12.38
2023-04-19T05:51:26.956Z,12.34
2023-04-19T05:52:26.979Z,12.33
2023-04-19T05:53:27.005Z,12.40
2023-04-19T05:54:27.038Z,12.38
2023-04-19T05:55:27.076Z,12.40
2023-04-19T05:56:27.107Z,12.44
2023-04-19T05:57:27.116Z,12.38
2023-04-19T05:58:27.231Z,12.37
2023-04-19T05:59:27.166Z,12.36
2023-04-19T06:00:27.193Z,12.34
2023-04-19T06:01:27.218Z,12.34
2023-04-19T06:02:27.327Z,12.26
2023-04-19T06:03:29.958Z,12.28
2023-04-19T06:04:27.586Z,12.23
2023-04-19T06:05:27.393Z,12.26
2023-04-19T06:06:27.540Z,12.29
2023-04-19T06:07:32.926Z,12.26
2023-04-19T06:08:27.403Z,12.28
2023-04-19T06:09:27.433Z,12.40
2023-04-19T06:10:36.726Z,12.36
2023-04-19T06:11:35.126Z,12.41
2023-04-19T06:12:27.555Z,12.40
2023-04-19T06:13:27.540Z,12.40
2023-04-19T06:14:27.562Z,12.44
2023-04-19T06:15:27.594Z,12.38
2023-04-19T06:16:27.629Z,12.43
2023-04-19T06:17:27.686Z,12.37
2023-04-19T06:18:27.678Z,12.44
2023-04-19T06:19:27.702Z,12.45
2023-04-19T06:20:27.734Z,12.44
2023-04-19T06:21:27.755Z,12.55
2023-04-19T06:22:27.786Z,12.52
2023-04-19T06:23:27.808Z,12.58
2023-04-19T06:24:27.834Z,12.62
2023-04-19T06:25:27.864Z,12.70
2023-04-19T06:26:27.892Z,12.62
2023-04-19T06:27:27.936Z,12.70
2023-04-19T06:28:28.020Z,12.66
2023-04-19T06:29:27.975Z,12.63
2023-04-19T06:30:27.995Z,12.62
2023-04-19T06:31:28.054Z,12.63
2023-04-19T06:32:28.058Z,12.65
2023-04-19T06:33:28.184Z,12.66
2023-04-19T06:34:28.106Z,12.69
2023-04-19T06:35:28.134Z,12.73
2023-04-19T06:36:28.170Z,12.73
2023-04-19T06:37:28.186Z,12.66
2023-04-19T06:38:28.213Z,12.70
2023-04-19T06:39:28.239Z,12.66
2023-04-19T06:40:28.302Z,12.65
2023-04-19T06:41:28.295Z,12.63
2023-04-19T06:42:28.321Z,12.66
2023-04-19T06:43:28.353Z,12.63
2023-04-19T06:44:28.409Z,12.59
2023-04-19T06:45:28.403Z,12.69
2023-04-19T06:46:28.467Z,12.71
2023-04-19T06:47:28.492Z,12.88
2023-04-19T06:48:28.483Z,12.92
2023-04-19T06:49:28.512Z,12.98
2023-04-19T06:50:28.544Z,12.84
2023-04-19T06:51:28.564Z,13.02
2023-04-19T06:52:28.591Z,13.03
2023-04-19T06:53:28.632Z,13.14
2023-04-19T06:54:28.650Z,13.25
2023-04-19T06:55:28.692Z,13.31
2023-04-19T06:56:28.702Z,13.37
2023-04-19T06:57:28.741Z,13.45
2023-04-19T06:58:28.759Z,13.68
2023-04-19T06:59:28.785Z,13.75
2023-04-19T07:00:28.959Z,13.83
2023-04-19T07:01:28.880Z,13.90
2023-04-19T07:02:28.947Z,13.97
2023-04-19T07:03:29.069Z,14.05
2023-04-19T07:04:29.049Z,14.16
2023-04-19T07:05:28.955Z,14.06
2023-04-19T07:06:28.976Z,14.15
2023-04-19T07:07:29.016Z,14.27
2023-04-19T07:08:42.363Z,14.79
2023-04-19T07:09:29.064Z,14.97
2023-04-19T07:10:29.094Z,14.79
2023-04-19T07:11:29.127Z,15.05
2023-04-19T07:12:29.148Z,15.33
2023-04-19T07:13:29.175Z,15.60
2023-04-19T07:14:29.205Z,16.69
2023-04-19T07:15:29.229Z,17.50
2023-04-19T07:16:29.442Z,17.96
2023-04-19T07:17:29.306Z,18.31
2023-04-19T07:18:29.321Z,18.29
2023-04-19T07:19:29.356Z,17.95
2023-04-19T07:20:29.382Z,18.50
2023-04-19T07:21:29.411Z,18.82
2023-04-19T07:22:29.442Z,19.07
2023-04-19T07:23:29.473Z,19.53
2023-04-19T07:24:29.505Z,18.87
2023-04-19T07:25:29.562Z,19.02
2023-04-19T07:26:29.577Z,19.32
2023-04-19T07:27:29.600Z,19.45
2023-04-19T07:28:29.637Z,19.52
2023-04-19T07:29:29.676Z,19.80
2023-04-19T07:30:30.719Z,19.78
2023-04-19T07:31:29.749Z,18.56
2023-04-19T07:32:29.965Z,18.51
2023-04-19T07:33:31.227Z,18.56
2023-04-19T07:34:29.829Z,18.72
2023-04-19T07:35:29.856Z,18.56
2023-04-19T07:36:29.898Z,18.59
2023-04-19T07:37:29.923Z,18.93
2023-04-19T07:38:29.961Z,19.37
2023-04-19T07:39:30.194Z,19.34
2023-04-19T07:40:31.443Z,19.34
2023-04-19T07:41:30.062Z,19.30
2023-04-19T07:42:30.100Z,18.20
2023-04-19T07:43:30.133Z,17.05
2023-04-19T07:44:30.167Z,16.47
2023-04-19T07:45:30.195Z,16.26
2023-04-19T07:46:30.288Z,16.25
2023-04-19T07:47:30.497Z,16.17
2023-04-19T07:48:30.471Z,16.10
2023-04-19T07:49:30.329Z,16.13
2023-04-19T07:50:30.363Z,16.18
2023-04-19T07:51:30.397Z,16.22
2023-04-19T07:52:31.442Z,16.11
2023-04-19T07:53:30.461Z,15.71
2023-04-19T07:54:30.501Z,15.59
2023-04-19T07:55:30.527Z,15.75
2023-04-19T07:56:30.564Z,15.56
2023-04-19T07:57:30.594Z,15.45
2023-04-19T07:58:30.628Z,15.37
2023-04-19T07:59:30.657Z,15.26
2023-04-19T08:00:30.706Z,15.30
2023-04-19T08:01:32.600Z,15.84
2023-04-19T08:02:30.921Z,16.94
2023-04-19T08:03:30.988Z,17.99
2023-04-19T08:04:31.347Z,18.86
2023-04-19T08:05:30.862Z,19.46
2023-04-19T08:06:30.924Z,19.55
2023-04-19T08:07:30.918Z,20.23
2023-04-19T08:08:31.248Z,20.58
2023-04-19T08:09:31.028Z,20.30
2023-04-19T08:10:31.033Z,20.63
2023-04-19T08:11:31.365Z,21.11
2023-04-19T08:12:40.562Z,21.08
2023-04-19T08:13:32.536Z,20.60
2023-04-19T08:14:38.034Z,20.97
2023-04-19T08:16:52.041Z,20.86
2023-04-19T08:17:25.569Z,20.71
2023-04-19T08:18:13.893Z,20.88
2023-04-19T08:20:31.691Z,21.38
2023-04-19T08:21:40.488Z,20.96
2023-04-19T08:22:31.736Z,20.51
2023-04-19T08:23:41.302Z,20.82
2023-04-19T08:24:31.812Z,20.72
2023-04-19T08:25:31.840Z,20.81
2023-04-19T08:26:31.880Z,20.81
2023-04-19T08:27:31.915Z,20.82
2023-04-19T08:28:31.950Z,20.90
2023-04-19T08:29:31.983Z,20.93
2023-04-19T08:30:32.059Z,20.60
2023-04-19T08:31:32.130Z,20.72
2023-04-19T08:32:32.100Z,21.04
2023-04-19T08:33:32.132Z,20.34
2023-04-19T08:34:32.171Z,20.08
2023-04-19T08:36:35.360Z,19.86
2023-04-19T08:47:05.929Z,20.16
2023-04-19T08:50:35.896Z,19.75
2023-04-19T08:51:32.682Z,20.08
2023-04-19T08:52:31.289Z,20.16
2023-04-19T08:53:31.336Z,20.63
2023-04-19T08:54:31.378Z,20.68
2023-04-19T08:55:31.396Z,19.90
2023-04-19T08:56:35.733Z,20.11
2023-04-19T08:57:31.482Z,19.98
2023-04-19T08:58:41.397Z,20.30
2023-04-19T08:59:31.536Z,20.12
2023-04-19T09:00:31.613Z,20.57
2023-04-19T09:01:35.356Z,20.60
2023-04-19T09:02:31.889Z,20.94
2023-04-19T09:03:33.349Z,21.19
2023-04-19T09:04:36.426Z,21.48
2023-04-19T09:05:31.924Z,20.96
2023-04-19T09:06:32.245Z,20.56
2023-04-19T09:07:31.843Z,20.68
2023-04-19T09:08:31.853Z,20.66
2023-04-19T09:09:36.978Z,20.68
2023-04-19T09:10:31.932Z,20.76
2023-04-19T09:11:31.958Z,20.34
2023-04-19T09:23:15.018Z,19.23
2023-04-19T09:24:15.208Z,19.37
2023-04-19T09:25:41.445Z,19.75
2023-04-19T09:28:26.170Z,20.22
2023-04-19T09:39:32.114Z,19.47
2023-04-19T09:40:32.001Z,19.12
2023-04-19T09:42:30.764Z,19.16
2023-04-19T09:45:13.098Z,19.45
2023-04-19T09:47:04.993Z,20.10
2023-04-19T09:48:05.137Z,20.40
2023-04-19T09:49:13.020Z,20.68
2023-04-19T09:50:11.775Z,20.35
2023-04-19T09:51:09.844Z,20.00
2023-04-19T09:52:05.119Z,20.44
2023-04-19T09:53:05.150Z,20.56
2023-04-19T09:54:05.183Z,20.07
2023-04-19T09:55:14.450Z,20.04
2023-04-19T09:56:05.271Z,19.95
2023-04-19T09:57:05.282Z,19.86
2023-04-19T09:58:05.314Z,20.02
2023-04-19T09:59:17.450Z,20.07
2023-04-19T10:00:05.381Z,19.89
2023-04-19T10:01:13.908Z,19.92
2023-04-19T10:02:05.584Z,20.29
2023-04-19T10:03:05.572Z,19.70
2023-04-19T10:04:19.887Z,19.95
2023-04-19T10:06:10.473Z,19.92
2023-04-19T10:07:28.512Z,20.08
2023-04-19T10:08:08.372Z,20.02
2023-04-19T10:09:05.665Z,20.29
2023-04-19T10:10:18.706Z,19.46
2023-04-19T10:11:05.751Z,19.43
2023-04-19T10:12:24.088Z,19.52
2023-04-19T10:13:16.077Z,19.38
2023-04-19T10:14:05.830Z,19.47
2023-04-19T10:15:05.866Z,20.04
2023-04-19T10:16:18.126Z,20.26
2023-04-19T10:17:05.960Z,20.35
2023-04-19T10:18:06.012Z,20.51
2023-04-19T10:19:06.794Z,20.40
2023-04-19T10:20:09.061Z,20.44
2023-04-19T10:21:06.066Z,20.58
2023-04-19T10:22:06.090Z,20.64
2023-04-19T10:23:06.138Z,20.23
2023-04-19T10:24:06.181Z,20.34
2023-04-19T10:25:06.199Z,20.22
2023-04-19T10:26:06.256Z,20.37
2023-04-19T10:27:06.268Z,19.72
2023-04-19T10:28:06.283Z,20.19
2023-04-19T10:29:06.318Z,20.02
2023-04-19T10:30:07.483Z,19.71
2023-04-19T10:31:06.384Z,19.82
2023-04-19T10:32:06.531Z,20.02
2023-04-19T10:33:06.562Z,20.30
2023-04-19T10:34:06.486Z,20.38
2023-04-19T10:35:06.511Z,20.38
2023-04-19T10:36:06.557Z,20.18
2023-04-19T10:37:06.574Z,20.10
2023-04-19T10:38:06.625Z,20.02
2023-04-19T10:39:06.647Z,19.78
2023-04-19T10:40:06.677Z,19.64
2023-04-19T10:41:06.703Z,19.68
2023-04-19T10:42:06.734Z,19.89
2023-04-19T10:43:06.865Z,20.00
2023-04-19T10:44:06.797Z,20.19
2023-04-19T10:45:06.830Z,20.12
2023-04-19T10:46:06.885Z,20.42
2023-04-19T10:47:06.892Z,19.89
2023-04-19T10:48:06.940Z,20.18
2023-04-19T10:49:06.959Z,20.26
2023-04-19T10:50:06.994Z,20.35
2023-04-19T10:51:07.020Z,19.97
2023-04-19T10:52:07.051Z,19.72
2023-04-19T10:53:07.099Z,19.52
2023-04-19T10:54:07.116Z,19.60
2023-04-19T10:55:07.464Z,19.83
2023-04-19T10:56:07.177Z,20.32
2023-04-19T10:57:07.235Z,20.10
2023-04-19T10:58:07.244Z,20.16
2023-04-19T10:59:07.335Z,20.49
2023-04-19T11:00:07.310Z,20.05
2023-04-19T11:01:07.368Z,19.63
2023-04-19T11:02:07.441Z,19.83
2023-04-19T11:03:07.520Z,19.97
2023-04-19T11:04:07.593Z,19.67
2023-04-19T11:05:07.465Z,19.72
2023-04-19T11:06:07.493Z,19.87
2023-04-19T11:07:07.730Z,19.61
2023-04-19T11:08:07.557Z,19.37
2023-04-19T11:09:07.593Z,19.50
2023-04-19T11:10:07.657Z,19.53
2023-04-19T11:11:07.658Z,19.55
2023-04-19T11:12:07.689Z,19.37
2023-04-19T11:13:07.716Z,19.15
2023-04-19T11:14:07.745Z,18.63
2023-04-19T11:15:07.873Z,18.71
2023-04-19T11:16:07.830Z,18.41
2023-04-19T11:17:07.890Z,18.06
2023-04-19T11:18:12.953Z,18.21
2023-04-19T11:19:07.930Z,18.24
2023-04-19T11:20:07.940Z,18.05
2023-04-19T11:21:07.963Z,17.96
2023-04-19T11:22:07.994Z,17.96
2023-04-19T11:23:08.034Z,17.88
2023-04-19T11:24:08.054Z,17.83
2023-04-19T11:25:08.088Z,17.86
2023-04-19T11:26:08.115Z,17.80
2023-04-19T11:27:08.149Z,17.83
2023-04-19T11:28:08.177Z,17.84
2023-04-19T11:29:08.206Z,17.76
2023-04-19T11:30:08.238Z,17.71
2023-04-19T11:31:08.364Z,17.40
2023-04-19T11:32:09.115Z,17.36
2023-04-19T11:33:08.503Z,17.36
2023-04-19T11:34:08.367Z,17.45
2023-04-19T11:35:08.394Z,17.58
2023-04-19T11:36:08.423Z,17.63
2023-04-19T11:37:08.458Z,17.57
2023-04-19T11:38:08.484Z,17.60
2023-04-19T11:39:08.516Z,17.63
2023-04-19T11:40:08.547Z,17.50
2023-04-19T11:41:08.579Z,17.42
2023-04-19T11:42:08.618Z,17.42
2023-04-19T11:43:08.637Z,17.50
2023-04-19T11:44:08.665Z,17.47
2023-04-19T11:45:18.716Z,17.25
2023-04-19T11:46:08.780Z,17.40
2023-04-19T11:47:08.915Z,17.06
2023-04-19T11:48:08.822Z,17.31
2023-04-19T11:49:08.828Z,17.12
2023-04-19T11:50:08.852Z,17.32
2023-04-19T11:51:08.883Z,17.25
2023-04-19T11:52:08.911Z,17.36
2023-04-19T11:53:08.943Z,17.47
2023-04-19T11:54:08.972Z,17.62
2023-04-19T11:55:09.008Z,17.69
2023-04-19T11:56:09.044Z,17.74
2023-04-19T11:57:09.074Z,17.80
2023-04-19T11:58:09.125Z,17.40
2023-04-19T11:59:09.150Z,17.31
2023-04-19T12:00:09.213Z,17.15
2023-04-19T12:01:09.185Z,17.07
2023-04-19T12:02:09.272Z,17.03
2023-04-19T12:03:09.472Z,16.92
2023-04-19T12:04:09.355Z,16.91
2023-04-19T12:05:09.457Z,16.92
2023-04-19T12:06:09.481Z,16.94
2023-04-19T12:07:09.364Z,16.82
2023-04-19T12:08:09.403Z,16.92
2023-04-19T12:09:09.446Z,16.94
2023-04-19T12:10:09.454Z,17.12
2023-04-19T12:11:09.490Z,17.06
2023-04-19T12:12:09.510Z,17.05
2023-04-19T12:13:09.545Z,16.95
2023-04-19T12:14:09.570Z,16.94
2023-04-19T12:15:09.616Z,17.09
2023-04-19T12:16:09.686Z,17.02
2023-04-19T12:17:09.871Z,17.18
2023-04-19T12:18:09.860Z,16.90
2023-04-19T12:19:09.831Z,16.76
2023-04-19T12:20:09.754Z,16.77
2023-04-19T12:21:09.783Z,16.91
2023-04-19T12:22:09.841Z,16.87
2023-04-19T12:23:09.846Z,16.62
2023-04-19T12:24:09.870Z,16.70
2023-04-19T12:25:09.902Z,16.67
2023-04-19T12:26:09.929Z,16.65
2023-04-19T12:27:10.891Z,16.29
2023-04-19T12:28:10.012Z,16.16
2023-04-19T12:29:10.038Z,16.16
2023-04-19T12:30:10.068Z,16.06
2023-04-19T12:31:10.101Z,16.30
2023-04-19T12:32:10.149Z,16.44
2023-04-19T12:33:10.222Z,16.49
2023-04-19T12:34:10.161Z,16.55
2023-04-19T12:35:10.220Z,16.62
2023-04-19T12:36:10.219Z,16.59
2023-04-19T12:37:10.260Z,16.67
2023-04-19T12:38:10.276Z,16.65
2023-04-19T12:39:10.313Z,16.66
2023-04-19T12:40:10.333Z,16.59
2023-04-19T12:41:10.370Z,16.58
2023-04-19T12:42:10.393Z,16.49
2023-04-19T12:43:10.424Z,16.52
2023-04-19T12:44:10.453Z,16.72
2023-04-19T12:45:10.483Z,16.73
2023-04-19T12:46:10.537Z,16.65
2023-04-19T12:47:10.543Z,16.66
2023-04-19T12:48:10.569Z,16.57
2023-04-19T12:49:10.601Z,16.57
2023-04-19T12:50:10.644Z,16.67
2023-04-19T12:51:10.722Z,16.73
2023-04-19T12:52:10.685Z,16.70
2023-04-19T12:53:10.714Z,16.81
2023-04-19T12:54:10.860Z,16.95
2023-04-19T12:55:10.972Z,17.00
2023-04-19T12:56:10.802Z,16.95
2023-04-19T12:57:10.832Z,17.07
2023-04-19T12:58:10.859Z,16.90
2023-04-19T12:59:10.888Z,16.95
2023-04-19T13:00:10.962Z,16.94
2023-04-19T13:01:10.972Z,16.97
2023-04-19T13:02:11.040Z,17.10
2023-04-19T13:03:11.192Z,16.95
2023-04-19T13:04:11.450Z,16.97
2023-04-19T13:05:11.079Z,17.09
2023-04-19T13:06:11.106Z,17.13
2023-04-19T13:07:11.155Z,17.12
2023-04-19T13:08:11.150Z,17.13
2023-04-19T13:09:14.984Z,17.00
2023-04-19T13:10:11.220Z,17.05
2023-04-19T13:11:11.279Z,16.97
2023-04-19T13:12:11.272Z,17.07
2023-04-19T13:13:11.302Z,17.07
2023-04-19T13:14:11.327Z,17.13
2023-04-19T13:15:11.362Z,17.17
2023-04-19T13:16:11.667Z,17.17
2023-04-19T13:17:11.416Z,17.17
2023-04-19T13:18:11.464Z,17.05
2023-04-19T13:19:11.476Z,17.03
2023-04-19T13:20:11.514Z,17.10
2023-04-19T13:21:11.532Z,17.05
2023-04-19T13:22:11.562Z,17.03
2023-04-19T13:23:11.660Z,17.00
2023-04-19T13:24:11.623Z,17.15
2023-04-19T13:25:11.661Z,17.13
2023-04-19T13:26:11.686Z,17.03
2023-04-19T13:27:11.761Z,17.02
2023-04-19T13:28:11.740Z,16.90
2023-04-19T13:29:11.771Z,16.94
2023-04-19T13:30:11.795Z,16.92
2023-04-19T13:31:11.879Z,16.87
2023-04-19T13:32:11.855Z,16.94
2023-04-19T13:33:11.910Z,16.87
2023-04-19T13:34:11.939Z,16.95
2023-04-19T13:35:11.942Z,17.05